Time;durP1;ratioP1;P1;durP2;ratioP2;P2;SDS_P1;SDS_P2;PMS_P1;PMS_P2;Temp;Humidity;BMP_temperature;BMP_pressure;BME280_temperature;BME280_humidity;BME280_pressure;Samples;Min_cycle;Max_cycle;Signal;HPM_P1;HPM_P2
2021/01/31 00:00:30;;;;;;;;;;;;;;;;;;5030743;28;4868;-76
2021/01/31 00:02:56;;;;;;;;;;;;;;;;;;5028604;28;5075;-75
2021/01/31 00:05:22;;;;;;;;;;;;;;;;;;5028364;28;3323;-75
2021/01/31 00:07:47;;;;;;;;;;;;;;;;;;5029147;28;4987;-75
2021/01/31 00:10:15;;;;;;;;;;;;;;;;;;5031247;28;3221;-75
2021/01/31 00:12:40;;;;;;;;;;;;;;;;;;5025960;28;5778;-75
2021/01/31 00:15:07;;;;;;;;;;;;;;;;;;5031415;28;5156;-76
2021/01/31 00:17:33;;;;;;;;;;;;;;;;;;5024619;28;4926;-76
2021/01/31 00:19:58;;;;;;;;;;;;;;;;;;5028049;28;5112;-75
2021/01/31 00:22:23;;;;;;;;;;;;;;;;;;5028489;28;2911;-75
2021/01/31 00:24:53;;;;;;;;;;;;;;;;;;5029601;28;5058;-75
2021/01/31 00:27:19;;;;;;;;;;;;;;;;;;5028623;28;4915;-75
2021/01/31 00:29:44;;;;;;;;;;;;;;;;;;5027323;28;2886;-75
2021/01/31 00:32:09;;;;;;;;;;;;;;;;;;5027463;28;4718;-76
2021/01/31 00:34:34;;;;;;;;;;;;;;;;;;5030233;28;2859;-75
2021/01/31 00:37:00;;;;;;;;;;;;;;;;;;5029373;28;4936;-75
2021/01/31 00:39:25;;;;;;;;;;;;;;;;;;5031177;28;4614;-76
2021/01/31 00:41:50;;;;;;;;;;;;;;;;;;5028288;28;4999;-76
2021/01/31 00:44:15;;;;;;;;;;;;;;;;;;5027363;28;4915;-75
2021/01/31 00:46:41;;;;;;;;;;;;;;;;;;5014858;28;1483;-75
2021/01/31 00:49:08;;;;;;;;;;;;;;;;;;5028780;28;3260;-75
2021/01/31 00:51:33;;;;;;;;;;;;;;;;;;5028365;28;5492;-76
2021/01/31 00:53:58;;;;;;;;;;;;;;;;;;5028786;28;5141;-75
2021/01/31 00:56:24;;;;;;;;;;;;;;;;;;5029907;28;5007;-75
2021/01/31 00:58:49;;;;;;;;;;;;;;;;;;5029499;28;4875;-75
2021/01/31 01:01:15;;;;;;;;;;;;;;;;;;5028473;28;2863;-76
2021/01/31 01:03:40;;;;;;;;;;;;;;;;;;5029489;28;5193;-75
2021/01/31 01:06:05;;;;;;;;;;;;;;;;;;5028933;28;4895;-76
2021/01/31 01:08:31;;;;;;;;;;;;;;;;;;5026638;28;5065;-76
2021/01/31 01:10:56;;;;;;;;;;;;;;;;;;5030629;28;4725;-75
2021/01/31 01:13:22;;;;;;;;;;;;;;;;;;5028485;28;2898;-75
2021/01/31 01:15:47;;;;;;;;;;;;;;;;;;5029565;28;4759;-76
2021/01/31 01:18:12;;;;;;;;;;;;;;;;;;5029371;28;5031;-75
2021/01/31 01:20:37;;;;;;;;;;;;;;;;;;5029562;28;4416;-75
2021/01/31 01:23:02;;;;;;;;;;;;;;;;;;5028576;28;4897;-76
2021/01/31 01:25:28;;;;;;;;;;;;;;;;;;5033782;28;1582;-75
2021/01/31 01:27:53;;;;;;;;;;;;;;;;;;5031021;28;4999;-75
2021/01/31 01:30:20;;;;;;;;;;;;;;;;;;5033015;28;5112;-75
2021/01/31 01:32:45;;;;;;;;;;;;;;;;;;5030413;28;4920;-76
2021/01/31 01:35:11;;;;;;;;;;;;;;;;;;5029803;28;5079;-75
2021/01/31 01:37:36;;;;;;;;;;;;;;;;;;5033730;28;2851;-76
2021/01/31 01:40:03;;;;;;;;;;;;;;;;;;5032474;28;5444;-75
2021/01/31 01:42:29;;;;;;;;;;;;;;;;;;5032726;28;4946;-75
2021/01/31 01:44:54;;;;;;;;;;;;;;;;;;5031195;28;5336;-75
2021/01/31 01:47:21;;;;;;;;;;;;;;;;;;5029015;28;5539;-75
2021/01/31 01:49:47;;;;;;;;;;;;;;;;;;5034455;28;4919;-75
2021/01/31 01:52:21;;;;;;;;;;;;;;;;;;5033712;28;3228;-75
2021/01/31 01:54:53;;;;;;;;;;;;;;;;;;5025585;28;5712;-75
2021/01/31 01:57:21;;;;;;;;;;;;;;;;;;5030062;28;5098;-75
2021/01/31 01:59:48;;;;;;;;;;;;;;;;;;5032597;28;4339;-74
2021/01/31 02:02:18;;;;;;;;;;;;;;;;;;5029438;28;4979;-75
2021/01/31 02:04:44;;;;;;;;;;;;;;;;;;5032437;28;5609;-75
2021/01/31 02:07:10;;;;;;;;;;;;;;;;;;5033447;28;3225;-76
2021/01/31 02:09:36;;;;;;;;;;;;;;;;;;5032820;28;5163;-75
2021/01/31 02:12:02;;;;;;;;;;;;;;;;;;5028109;28;5636;-76
2021/01/31 02:14:29;;;;;;;;;;;;;;;;;;5020846;28;5043;-74
2021/01/31 02:16:54;;;;;;;;;;;;;;;;;;5033894;28;5095;-75
2021/01/31 02:19:25;;;;;;;;;;;;;;;;;;5031695;28;2844;-75
2021/01/31 02:21:50;;;;;;;;;;;;;;;;;;5028188;28;4987;-75
2021/01/31 02:24:19;;;;;;;;;;;;;;;;;;5030822;28;4920;-75
2021/01/31 02:26:56;;;;;;;;;;;;;;;;;;5029783;28;4903;-75
2021/01/31 02:29:24;;;;;;;;;;;;;;;;;;5030425;28;5319;-75
2021/01/31 02:32:00;;;;;;;;;;;;;;;;;;5030131;28;4919;-75
2021/01/31 02:34:30;;;;;;;;;;;;;;;;;;5030948;28;2914;-75
2021/01/31 02:37:14;;;;;;;;;;;;;;;;;;5030487;28;4975;-75
2021/01/31 02:39:55;;;;;;;;;;;;;;;;;;5028320;28;4221;-75
2021/01/31 02:42:21;;;;;;;;;;;;;;;;;;5029467;28;4911;-75
2021/01/31 02:44:54;;;;;;;;;;;;;;;;;;5029458;28;4900;-75
2021/01/31 02:47:22;;;;;;;;;;;;;;;;;;5026991;28;5031;-76
2021/01/31 02:50:00;;;;;;;;;;;;;;;;;;5030021;28;4912;-75
2021/01/31 02:52:33;;;;;;;;;;;;;;;;;;5033603;28;1961;-75
2021/01/31 02:55:08;;;;;;;;;;;;;;;;;;5030482;28;4971;-76
2021/01/31 02:57:44;;;;;;;;;;;;;;;;;;5028419;28;4935;-75
2021/01/31 03:00:14;;;;;;;;;;;;;;;;;;5029830;28;5451;-75
2021/01/31 03:02:46;;;;;;;;;;;;;;;;;;5012229;28;5030;-76
2021/01/31 03:05:16;;;;;;;;;;;;;;;;;;5029656;28;4816;-75
2021/01/31 03:07:57;;;;;;;;;;;;;;;;;;5033708;28;1506;-75
2021/01/31 03:10:37;;;;;;;;;;;;;;;;;;5033064;28;3191;-76
2021/01/31 03:13:18;;;;;;;;;;;;;;;;;;5026753;28;5183;-75
2021/01/31 03:15:47;;;;;;;;;;;;;;;;;;5030612;28;5337;-75
2021/01/31 03:18:45;;;;;;;;;;;;;;;;;;5011909;28;4294;-75
2021/01/31 03:21:20;;;;;;;;;;;;;;;;;;4952334;29;5632;-75
2021/01/31 03:24:08;;;;;;;;;;;;;;;;;;4951985;29;5007;-75
2021/01/31 03:26:45;;;;;;;;;;;;;;;;;;4941113;29;5097;-75
2021/01/31 03:29:10;;;;;;;;;;;;;;;;;;4951266;29;4915;-75
2021/01/31 03:31:38;;;;;;;;;;;;;;;;;;4952841;29;1948;-75
2021/01/31 03:34:11;;;;;;;;;;;;;;;;;;4951058;29;4962;-76
2021/01/31 03:36:39;;;;;;;;;;;;;;;;;;4951614;29;4960;-76
2021/01/31 03:39:05;;;;;;;;;;;;;;;;;;4951010;29;5018;-75
2021/01/31 03:41:31;;;;;;;;;;;;;;;;;;4951143;28;5222;-76
2021/01/31 03:43:56;;;;;;;;;;;;;;;;;;4951945;29;4746;-76
2021/01/31 03:46:36;;;;;;;;;;;;;;;;;;4951523;28;2919;-76
2021/01/31 03:49:06;;;;;;;;;;;;;;;;;;4951008;29;5178;-75
2021/01/31 03:51:32;;;;;;;;;;;;;;;;;;4950859;29;5327;-75
2021/01/31 03:53:58;;;;;;;;;;;;;;;;;;4951342;29;4999;-76
2021/01/31 03:56:46;;;;;;;;;;;;;;;;;;4977564;28;3906;-75
2021/01/31 03:59:16;;;;;;;;;;;;;;;;;;5014474;28;4100;-76
2021/01/31 04:01:41;;;;;;;;;;;;;;;;;;5032301;28;1644;-76
2021/01/31 04:04:12;;;;;;;;;;;;;;;;;;5027260;28;5557;-76
2021/01/31 04:06:38;;;;;;;;;;;;;;;;;;5028941;28;5000;-75
2021/01/31 04:09:04;;;;;;;;;;;;;;;;;;5029693;28;4964;-75
2021/01/31 04:11:30;;;;;;;;;;;;;;;;;;5027949;28;5118;-74
2021/01/31 04:13:56;;;;;;;;;;;;;;;;;;5028307;28;5443;-76
2021/01/31 04:16:22;;;;;;;;;;;;;;;;;;5027579;28;3044;-75
2021/01/31 04:18:47;;;;;;;;;;;;;;;;;;5030264;28;3380;-75
2021/01/31 04:21:12;;;;;;;;;;;;;;;;;;5029979;28;4971;-75
2021/01/31 04:23:37;;;;;;;;;;;;;;;;;;5028812;28;5057;-75
2021/01/31 04:26:02;;;;;;;;;;;;;;;;;;5028382;28;4880;-75
2021/01/31 04:28:28;;;;;;;;;;;;;;;;;;5029204;28;2864;-75
2021/01/31 04:30:56;;;;;;;;;;;;;;;;;;5028095;28;4947;-74
2021/01/31 04:33:22;;;;;;;;;;;;;;;;;;5012310;28;4369;-74
2021/01/31 04:35:47;;;;;;;;;;;;;;;;;;5028406;28;4998;-75
2021/01/31 04:38:12;;;;;;;;;;;;;;;;;;5027892;28;4947;-75
2021/01/31 04:40:37;;;;;;;;;;;;;;;;;;5032193;28;1688;-75
2021/01/31 04:43:05;;;;;;;;;;;;;;;;;;5025209;28;5131;-75
2021/01/31 04:45:31;;;;;;;;;;;;;;;;;;5027743;28;5146;-75
2021/01/31 04:47:56;;;;;;;;;;;;;;;;;;5029763;28;5007;-75
2021/01/31 04:50:21;;;;;;;;;;;;;;;;;;5027487;28;4950;-75
2021/01/31 04:53:06;;;;;;;;;;;;;;;;;;5029920;28;4854;-75
2021/01/31 04:55:49;;;;;;;;;;;;;;;;;;5030989;28;2855;-75
2021/01/31 04:58:17;;;;;;;;;;;;;;;;;;5027959;28;2903;-75
2021/01/31 05:00:48;;;;;;;;;;;;;;;;;;5032522;28;4978;-75
2021/01/31 05:03:14;;;;;;;;;;;;;;;;;;5033232;28;5495;-75
2021/01/31 05:05:50;;;;;;;;;;;;;;;;;;5031072;28;5044;-75
2021/01/31 05:08:19;;;;;;;;;;;;;;;;;;5027837;28;4907;-75
2021/01/31 05:10:45;;;;;;;;;;;;;;;;;;5032240;28;3975;-75
2021/01/31 05:13:13;;;;;;;;;;;;;;;;;;5029919;28;5592;-75
2021/01/31 05:15:44;;;;;;;;;;;;;;;;;;5030977;28;4960;-74
2021/01/31 05:18:10;;;;;;;;;;;;;;;;;;5033812;28;2982;-75
2021/01/31 05:20:36;;;;;;;;;;;;;;;;;;5033947;28;4982;-74
2021/01/31 05:23:03;;;;;;;;;;;;;;;;;;5032161;28;4993;-74
2021/01/31 05:25:29;;;;;;;;;;;;;;;;;;5035077;28;1534;-74
2021/01/31 05:27:56;;;;;;;;;;;;;;;;;;5030369;28;5282;-75
2021/01/31 05:30:21;;;;;;;;;;;;;;;;;;5029494;28;5176;-76
2021/01/31 05:33:05;;;;;;;;;;;;;;;;;;5029784;28;5015;-76
2021/01/31 05:35:32;;;;;;;;;;;;;;;;;;5028583;28;4967;-77
2021/01/31 05:37:57;;;;;;;;;;;;;;;;;;5031285;28;5150;-77
2021/01/31 05:40:31;;;;;;;;;;;;;;;;;;5029340;28;3119;-77
2021/01/31 05:42:56;;;;;;;;;;;;;;;;;;5031460;28;4932;-77
2021/01/31 05:45:21;;;;;;;;;;;;;;;;;;5029175;28;4989;-76
2021/01/31 05:47:48;;;;;;;;;;;;;;;;;;5031624;28;4232;-77
2021/01/31 05:50:28;;;;;;;;;;;;;;;;;;5031933;28;5456;-77
2021/01/31 05:52:54;;;;;;;;;;;;;;;;;;5030509;28;5145;-77
2021/01/31 05:55:23;;;;;;;;;;;;;;;;;;5032696;28;2832;-76
2021/01/31 05:57:48;;;;;;;;;;;;;;;;;;5027325;28;5035;-77
2021/01/31 06:00:19;;;;;;;;;;;;;;;;;;5032786;28;4990;-76
2021/01/31 06:03:03;;;;;;;;;;;;;;;;;;5030305;28;5022;-77
2021/01/31 06:05:29;;;;;;;;;;;;;;;;;;5029515;28;5014;-75
2021/01/31 06:08:03;;;;;;;;;;;;;;;;;;5030554;28;5191;-76
2021/01/31 06:10:29;;;;;;;;;;;;;;;;;;5031730;28;1629;-76
2021/01/31 06:13:06;;;;;;;;;;;;;;;;;;5032288;28;5416;-75
2021/01/31 06:15:37;;;;;;;;;;;;;;;;;;5014414;28;4583;-76
2021/01/31 06:18:06;;;;;;;;;;;;;;;;;;5032211;28;5027;-76
2021/01/31 06:20:33;;;;;;;;;;;;;;;;;;5027193;28;5017;-75
2021/01/31 06:22:59;;;;;;;;;;;;;;;;;;5031432;28;4907;-75
2021/01/31 06:25:27;;;;;;;;;;;;;;;;;;5030200;28;3804;-76
2021/01/31 06:27:57;;;;;;;;;;;;;;;;;;5028508;28;5651;-75
2021/01/31 06:30:28;;;;;;;;;;;;;;;;;;5026509;28;5140;-76
2021/01/31 06:32:53;;;;;;;;;;;;;;;;;;5028786;28;2940;-75
2021/01/31 06:35:21;;;;;;;;;;;;;;;;;;5029956;28;4916;-76
2021/01/31 06:38:01;;;;;;;;;;;;;;;;;;5033271;28;4915;-76
2021/01/31 06:40:36;;;;;;;;;;;;;;;;;;5029983;28;2855;-75
2021/01/31 06:43:10;;;;;;;;;;;;;;;;;;5027967;28;4562;-76
2021/01/31 06:45:44;;;;;;;;;;;;;;;;;;5026297;28;5526;-75
2021/01/31 06:48:12;;;;;;;;;;;;;;;;;;5030374;28;5303;-76
2021/01/31 06:50:43;;;;;;;;;;;;;;;;;;5029977;28;5087;-76
2021/01/31 06:53:18;;;;;;;;;;;;;;;;;;5028433;28;5158;-75
2021/01/31 06:55:55;;;;;;;;;;;;;;;;;;5033173;28;1471;-76
2021/01/31 06:58:26;;;;;;;;;;;;;;;;;;5032073;28;2674;-76
2021/01/31 07:01:00;;;;;;;;;;;;;;;;;;5031856;28;5156;-75
2021/01/31 07:03:39;;;;;;;;;;;;;;;;;;5031055;28;4356;-76
2021/01/31 07:06:11;;;;;;;;;;;;;;;;;;5012668;28;5606;-76
2021/01/31 07:08:36;;;;;;;;;;;;;;;;;;5029945;28;5035;-75
2021/01/31 07:11:10;;;;;;;;;;;;;;;;;;5029034;28;5017;-75
2021/01/31 07:13:41;;;;;;;;;;;;;;;;;;5032839;28;1625;-75
2021/01/31 07:16:12;;;;;;;;;;;;;;;;;;5026588;28;5390;-75
2021/01/31 07:18:48;;;;;;;;;;;;;;;;;;5027926;28;5450;-75
2021/01/31 07:21:21;;;;;;;;;;;;;;;;;;5028636;28;4980;-75
2021/01/31 07:23:48;;;;;;;;;;;;;;;;;;5028369;28;5015;-75
2021/01/31 07:26:23;;;;;;;;;;;;;;;;;;5029307;28;5073;-75
2021/01/31 07:28:50;;;;;;;;;;;;;;;;;;5028938;28;4710;-75
2021/01/31 07:31:23;;;;;;;;;;;;;;;;;;5030729;28;2832;-75
2021/01/31 07:33:56;;;;;;;;;;;;;;;;;;5027967;28;4964;-75
2021/01/31 07:36:30;;;;;;;;;;;;;;;;;;5029135;28;4936;-76
2021/01/31 07:39:00;;;;;;;;;;;;;;;;;;5030575;28;5194;-75
2021/01/31 07:41:25;;;;;;;;;;;;;;;;;;5030576;28;3757;-75
2021/01/31 07:44:12;;;;;;;;;;;;;;;;;;5029550;28;5057;-76
2021/01/31 07:46:37;;;;;;;;;;;;;;;;;;5031575;28;5079;-77
2021/01/31 07:49:04;;;;;;;;;;;;;;;;;;5027794;28;5263;-76
2021/01/31 07:51:29;;;;;;;;;;;;;;;;;;5027047;28;3355;-75
2021/01/31 07:53:54;;;;;;;;;;;;;;;;;;5029653;28;3030;-75
2021/01/31 07:56:31;;;;;;;;;;;;;;;;;;5032685;28;5042;-80
2021/01/31 07:58:58;;;;;;;;;;;;;;;;;;5031655;28;5538;-78
2021/01/31 08:01:39;;;;;;;;;;;;;;;;;;5029829;28;2761;-78
2021/01/31 08:04:16;;;;;;;;;;;;;;;;;;5027750;28;5275;-81
2021/01/31 08:06:49;;;;;;;;;;;;;;;;;;5034269;28;4965;-82
2021/01/31 08:09:24;;;;;;;;;;;;;;;;;;5034082;28;5313;-80
2021/01/31 08:11:49;;;;;;;;;;;;;;;;;;5027659;28;4986;-80
2021/01/31 08:14:34;;;;;;;;;;;;;;;;;;5031245;28;5128;-80
2021/01/31 08:16:59;;;;;;;;;;;;;;;;;;5027897;28;4199;-80
2021/01/31 08:19:29;;;;;;;;;;;;;;;;;;5038081;28;3045;-82
2021/01/31 08:22:12;;;;;;;;;;;;;;;;;;5022600;28;5554;-82
2021/01/31 08:24:55;;;;;;;;;;;;;;;;;;5016773;28;5575;-81
2021/01/31 08:27:42;;;;;;;;;;;;;;;;;;5021788;28;5405;-80
2021/01/31 08:30:13;;;;;;;;;;;;;;;;;;5017273;28;3354;-79
2021/01/31 08:32:56;;;;;;;;;;;;;;;;;;5028622;28;4771;-80
2021/01/31 08:35:24;;;;;;;;;;;;;;;;;;5016867;28;5122;-79
2021/01/31 08:37:51;;;;;;;;;;;;;;;;;;5020127;28;5905;-81
2021/01/31 08:40:17;;;;;;;;;;;;;;;;;;5014265;28;5071;-79
2021/01/31 08:42:46;;;;;;;;;;;;;;;;;;5017038;28;5219;-79
2021/01/31 08:45:12;;;;;;;;;;;;;;;;;;5021150;28;2821;-79
2021/01/31 08:47:41;;;;;;;;;;;;;;;;;;5031821;28;5416;-79
2021/01/31 08:50:08;;;;;;;;;;;;;;;;;;5032575;28;4782;-82
2021/01/31 08:52:33;;;;;;;;;;;;;;;;;;5018481;28;4991;-80
2021/01/31 08:54:59;;;;;;;;;;;;;;;;;;5029801;28;4265;-78
2021/01/31 08:57:26;;;;;;;;;;;;;;;;;;5019146;28;4978;-81
2021/01/31 08:59:51;;;;;;;;;;;;;;;;;;5023696;28;2623;-80
2021/01/31 09:02:26;;;;;;;;;;;;;;;;;;5029059;28;5580;-80
2021/01/31 09:04:57;;;;;;;;;;;;;;;;;;5014172;28;5327;-80
2021/01/31 09:07:25;;;;;;;;;;;;;;;;;;5023599;28;5137;-80
2021/01/31 09:09:52;;;;;;;;;;;;;;;;;;5013341;28;5149;-80
2021/01/31 09:12:19;;;;;;;;;;;;;;;;;;5013675;28;5003;-81
2021/01/31 09:14:44;;;;;;;;;;;;;;;;;;5028631;28;3198;-81
2021/01/31 09:17:26;;;;;;;;;;;;;;;;;;5019942;28;5471;-80
2021/01/31 09:20:07;;;;;;;;;;;;;;;;;;5027223;28;5363;-75
2021/01/31 09:22:32;;;;;;;;;;;;;;;;;;5016902;28;5236;-75
2021/01/31 09:25:01;;;;;;;;;;;;;;;;;;5027137;28;3275;-75
2021/01/31 09:27:27;;;;;;;;;;;;;;;;;;5011799;28;5145;-74
2021/01/31 09:30:03;;;;;;;;;;;;;;;;;;5023751;28;2979;-75
2021/01/31 09:32:39;;;;;;;;;;;;;;;;;;5020114;28;5011;-75
2021/01/31 09:35:06;;;;;;;;;;;;;;;;;;5023880;28;4697;-75
2021/01/31 09:37:32;;;;;;;;;;;;;;;;;;5027662;28;5945;-75
2021/01/31 09:39:58;;;;;;;;;;;;;;;;;;5026091;28;5248;-75
2021/01/31 09:42:28;;;;;;;;;;;;;;;;;;5026498;28;4936;-76
2021/01/31 09:45:19;;;;;;;;;;;;;;;;;;5029728;28;2856;-76
2021/01/31 09:47:48;;;;;;;;;;;;;;;;;;4975209;28;3031;-76
2021/01/31 09:50:13;;;;;;;;;;;;;;;;;;4972789;28;5033;-76
2021/01/31 09:52:42;;;;;;;;;;;;;;;;;;4973107;28;4944;-75
2021/01/31 09:55:24;;;;;;;;;;;;;;;;;;4974964;28;5015;-75
2021/01/31 09:57:49;;;;;;;;;;;;;;;;;;4972432;28;4976;-75
2021/01/31 10:00:14;;;;;;;;;;;;;;;;;;4972837;28;2540;-75
2021/01/31 10:02:40;;;;;;;;;;;;;;;;;;4971918;28;5258;-76
2021/01/31 10:05:09;;;;;;;;;;;;;;;;;;4972692;28;5067;-76
2021/01/31 10:07:45;;;;;;;;;;;;;;;;;;4971996;28;4914;-76
2021/01/31 10:10:24;;;;;;;;;;;;;;;;;;4972819;28;5078;-76
2021/01/31 10:12:50;;;;;;;;;;;;;;;;;;4971292;28;3948;-76
2021/01/31 10:15:34;;;;;;;;;;;;;;;;;;4972419;28;5497;-76
2021/01/31 10:17:59;;;;;;;;;;;;;;;;;;4971121;28;4931;-76
2021/01/31 10:20:27;;;;;;;;;;;;;;;;;;4967029;28;5168;-76
2021/01/31 10:22:53;;;;;;;;;;;;;;;;;;4971740;28;5050;-77
2021/01/31 10:25:18;;;;;;;;;;;;;;;;;;5019531;28;3432;-78
2021/01/31 10:27:44;;;;;;;;;;;;;;;;;;5029523;28;4939;-76
2021/01/31 10:30:17;;;;;;;;;;;;;;;;;;5033703;28;1836;-75
2021/01/31 10:32:43;;;;;;;;;;;;;;;;;;5028809;28;3045;-76
2021/01/31 10:35:31;;;;;;;;;;;;;;;;;;5030826;28;5331;-75
2021/01/31 10:37:58;;;;;;;;;;;;;;;;;;5016932;28;4775;-76
2021/01/31 10:40:23;;;;;;;;;;;;;;;;;;5029425;28;4939;-76
2021/01/31 10:42:49;;;;;;;;;;;;;;;;;;5032293;28;5097;-76
2021/01/31 10:45:16;;;;;;;;;;;;;;;;;;5029013;28;3110;-76
2021/01/31 10:47:45;;;;;;;;;;;;;;;;;;5030310;28;2811;-76
2021/01/31 10:50:11;;;;;;;;;;;;;;;;;;5019677;28;5371;-76
2021/01/31 10:52:36;;;;;;;;;;;;;;;;;;5018998;28;5465;-76
2021/01/31 10:55:01;;;;;;;;;;;;;;;;;;5028447;28;5440;-76
2021/01/31 10:57:28;;;;;;;;;;;;;;;;;;5032346;28;4426;-76
2021/01/31 10:59:53;;;;;;;;;;;;;;;;;;5023980;28;2875;-75
2021/01/31 11:02:19;;;;;;;;;;;;;;;;;;5029808;28;5655;-76
2021/01/31 11:04:44;;;;;;;;;;;;;;;;;;5031176;28;4999;-76
2021/01/31 11:07:09;;;;;;;;;;;;;;;;;;5026316;28;5162;-76
2021/01/31 11:09:34;;;;;;;;;;;;;;;;;;5013983;28;5124;-76
2021/01/31 11:12:00;;;;;;;;;;;;;;;;;;5032083;28;1981;-76
2021/01/31 11:14:25;;;;;;;;;;;;;;;;;;5025924;28;5314;-76
2021/01/31 11:16:50;;;;;;;;;;;;;;;;;;5028969;28;5087;-76
2021/01/31 11:19:15;;;;;;;;;;;;;;;;;;5031042;28;5710;-76
2021/01/31 11:21:41;;;;;;;;;;;;;;;;;;5029779;28;4684;-75
2021/01/31 11:24:06;;;;;;;;;;;;;;;;;;5021825;28;2955;-75
2021/01/31 11:26:31;;;;;;;;;;;;;;;;;;5030646;28;5442;-76
2021/01/31 11:28:57;;;;;;;;;;;;;;;;;;5019414;28;4269;-76
2021/01/31 11:31:23;;;;;;;;;;;;;;;;;;5014721;28;5488;-76
2021/01/31 11:33:50;;;;;;;;;;;;;;;;;;5021793;28;3206;-76
2021/01/31 11:36:15;;;;;;;;;;;;;;;;;;5033644;28;1680;-76
2021/01/31 11:38:41;;;;;;;;;;;;;;;;;;5029529;28;3101;-76
2021/01/31 11:41:06;;;;;;;;;;;;;;;;;;5027292;28;4971;-75
2021/01/31 11:43:31;;;;;;;;;;;;;;;;;;5029799;28;4997;-75
2021/01/31 11:45:56;;;;;;;;;;;;;;;;;;5030866;28;5428;-76
2021/01/31 11:48:22;;;;;;;;;;;;;;;;;;5031374;28;4915;-76
2021/01/31 11:50:47;;;;;;;;;;;;;;;;;;5031486;28;3217;-76
2021/01/31 11:53:12;;;;;;;;;;;;;;;;;;5027478;28;4839;-76
2021/01/31 11:55:38;;;;;;;;;;;;;;;;;;5029370;28;5164;-76
2021/01/31 11:58:03;;;;;;;;;;;;;;;;;;5027420;28;5010;-76
2021/01/31 12:00:28;;;;;;;;;;;;;;;;;;5012227;28;4884;-76
2021/01/31 12:02:54;;;;;;;;;;;;;;;;;;5031331;28;3178;-76
2021/01/31 12:05:20;;;;;;;;;;;;;;;;;;5028896;28;4938;-75
2021/01/31 12:07:45;;;;;;;;;;;;;;;;;;5028708;28;4589;-76
2021/01/31 12:10:11;;;;;;;;;;;;;;;;;;5031127;28;5620;-75
2021/01/31 12:12:37;;;;;;;;;;;;;;;;;;5024538;28;4966;-75
2021/01/31 12:15:03;;;;;;;;;;;;;;;;;;5028049;28;3083;-76
2021/01/31 12:17:28;;;;;;;;;;;;;;;;;;5029177;28;5251;-76
2021/01/31 12:19:53;;;;;;;;;;;;;;;;;;5028133;28;4940;-75
2021/01/31 12:22:19;;;;;;;;;;;;;;;;;;5027204;28;3521;-75
2021/01/31 12:24:44;;;;;;;;;;;;;;;;;;5028780;28;5693;-75
2021/01/31 12:27:09;;;;;;;;;;;;;;;;;;5027919;28;4988;-75
2021/01/31 12:29:34;;;;;;;;;;;;;;;;;;5025926;28;4759;-75
2021/01/31 12:32:00;;;;;;;;;;;;;;;;;;5031213;28;5003;-76
2021/01/31 12:34:25;;;;;;;;;;;;;;;;;;5030749;28;3418;-75
2021/01/31 12:36:50;;;;;;;;;;;;;;;;;;5026012;28;5376;-75
2021/01/31 12:39:16;;;;;;;;;;;;;;;;;;5010195;28;5776;-76
2021/01/31 12:41:41;;;;;;;;;;;;;;;;;;5028839;28;5220;-76
2021/01/31 12:44:07;;;;;;;;;;;;;;;;;;5029979;28;5606;-76
2021/01/31 12:46:32;;;;;;;;;;;;;;;;;;5031726;28;1665;-75
2021/01/31 12:48:57;;;;;;;;;;;;;;;;;;5028895;28;5393;-75
2021/01/31 12:51:25;;;;;;;;;;;;;;;;;;5021407;28;5464;-75
2021/01/31 12:53:50;;;;;;;;;;;;;;;;;;5005985;28;5289;-75
2021/01/31 12:56:15;;;;;;;;;;;;;;;;;;5013301;28;5241;-75
2021/01/31 12:58:40;;;;;;;;;;;;;;;;;;5032634;28;1622;-76
2021/01/31 13:01:05;;;;;;;;;;;;;;;;;;5028032;28;5286;-76
2021/01/31 13:03:31;;;;;;;;;;;;;;;;;;5028458;28;5846;-76
2021/01/31 13:05:56;;;;;;;;;;;;;;;;;;5018650;28;5003;-76
2021/01/31 13:08:21;;;;;;;;;;;;;;;;;;5031744;28;5336;-75
2021/01/31 13:10:47;;;;;;;;;;;;;;;;;;5030261;28;3190;-75
2021/01/31 13:13:15;;;;;;;;;;;;;;;;;;5023380;28;3121;-76
2021/01/31 13:15:40;;;;;;;;;;;;;;;;;;5012544;28;5406;-76
2021/01/31 13:18:06;;;;;;;;;;;;;;;;;;5012796;28;5293;-75
2021/01/31 13:20:31;;;;;;;;;;;;;;;;;;5015543;28;5151;-76
2021/01/31 13:22:56;;;;;;;;;;;;;;;;;;5016895;28;3413;-76
2021/01/31 13:25:21;;;;;;;;;;;;;;;;;;5023186;28;5011;-75
2021/01/31 13:27:47;;;;;;;;;;;;;;;;;;5032187;28;4942;-75
2021/01/31 13:30:15;;;;;;;;;;;;;;;;;;5025748;28;3166;-75
2021/01/31 13:32:40;;;;;;;;;;;;;;;;;;5019801;28;5425;-75
2021/01/31 13:35:06;;;;;;;;;;;;;;;;;;5034086;28;5377;-75
2021/01/31 13:37:31;;;;;;;;;;;;;;;;;;5016596;28;3197;-75
2021/01/31 13:39:57;;;;;;;;;;;;;;;;;;5015480;28;3407;-75
2021/01/31 13:42:22;;;;;;;;;;;;;;;;;;5016054;28;5405;-75
2021/01/31 13:44:47;;;;;;;;;;;;;;;;;;5016646;28;5334;-76
2021/01/31 13:47:13;;;;;;;;;;;;;;;;;;5017536;28;4980;-75
2021/01/31 13:49:39;;;;;;;;;;;;;;;;;;5034490;28;1894;-75
2021/01/31 13:52:04;;;;;;;;;;;;;;;;;;5030811;28;5416;-76
2021/01/31 13:54:30;;;;;;;;;;;;;;;;;;5019795;28;5309;-75
2021/01/31 13:56:55;;;;;;;;;;;;;;;;;;5015501;28;5169;-75
2021/01/31 13:59:20;;;;;;;;;;;;;;;;;;5017007;28;5456;-76
2021/01/31 14:01:45;;;;;;;;;;;;;;;;;;5024309;28;3186;-75
2021/01/31 14:04:10;;;;;;;;;;;;;;;;;;5016835;28;5554;-76
2021/01/31 14:06:36;;;;;;;;;;;;;;;;;;5016918;28;5767;-75
2021/01/31 14:09:02;;;;;;;;;;;;;;;;;;4997852;28;5436;-75
2021/01/31 14:11:27;;;;;;;;;;;;;;;;;;5014555;28;5057;-76
2021/01/31 14:13:52;;;;;;;;;;;;;;;;;;5015182;28;5067;-75
2021/01/31 14:16:17;;;;;;;;;;;;;;;;;;5031395;28;3170;-76
2021/01/31 14:18:43;;;;;;;;;;;;;;;;;;5018610;28;5679;-75
2021/01/31 14:21:09;;;;;;;;;;;;;;;;;;5015137;28;5221;-75
2021/01/31 14:23:35;;;;;;;;;;;;;;;;;;5017591;28;4923;-76
2021/01/31 14:26:00;;;;;;;;;;;;;;;;;;5032977;28;5409;-76
2021/01/31 14:28:25;;;;;;;;;;;;;;;;;;5032426;28;3416;-76
2021/01/31 14:30:50;;;;;;;;;;;;;;;;;;5030693;28;5486;-75
2021/01/31 14:33:16;;;;;;;;;;;;;;;;;;5022226;28;5450;-75
2021/01/31 14:35:41;;;;;;;;;;;;;;;;;;5019236;28;5524;-75
2021/01/31 14:38:06;;;;;;;;;;;;;;;;;;5032129;28;4823;-75
2021/01/31 14:40:31;;;;;;;;;;;;;;;;;;5024478;28;3261;-75
2021/01/31 14:42:57;;;;;;;;;;;;;;;;;;5017717;28;5648;-75
2021/01/31 14:45:25;;;;;;;;;;;;;;;;;;5031272;28;5287;-75
2021/01/31 14:47:50;;;;;;;;;;;;;;;;;;5026714;28;5333;-75
2021/01/31 14:50:16;;;;;;;;;;;;;;;;;;5015187;28;5539;-75
2021/01/31 14:52:42;;;;;;;;;;;;;;;;;;5015552;28;3202;-75
2021/01/31 14:55:13;;;;;;;;;;;;;;;;;;5015104;28;5261;-76
2021/01/31 14:57:39;;;;;;;;;;;;;;;;;;5025203;28;5532;-76
2021/01/31 15:00:05;;;;;;;;;;;;;;;;;;5023249;28;5524;-75
2021/01/31 15:02:31;;;;;;;;;;;;;;;;;;5013601;28;5911;-75
2021/01/31 15:04:56;;;;;;;;;;;;;;;;;;5014088;28;5237;-75
2021/01/31 15:07:21;;;;;;;;;;;;;;;;;;5031937;28;3300;-76
2021/01/31 15:09:46;;;;;;;;;;;;;;;;;;5017224;28;5609;-75
2021/01/31 15:12:12;;;;;;;;;;;;;;;;;;5014263;28;5575;-75
2021/01/31 15:14:37;;;;;;;;;;;;;;;;;;5014749;28;5586;-75
2021/01/31 15:17:02;;;;;;;;;;;;;;;;;;5013439;28;4377;-75
2021/01/31 15:19:27;;;;;;;;;;;;;;;;;;5014480;28;5397;-75
2021/01/31 15:21:53;;;;;;;;;;;;;;;;;;5027457;28;4646;-75
2021/01/31 15:24:18;;;;;;;;;;;;;;;;;;5021217;28;5261;-75
2021/01/31 15:26:43;;;;;;;;;;;;;;;;;;5014666;28;5304;-75
2021/01/31 15:29:08;;;;;;;;;;;;;;;;;;5023343;28;5055;-75
2021/01/31 15:31:34;;;;;;;;;;;;;;;;;;5014495;28;3245;-75
2021/01/31 15:33:59;;;;;;;;;;;;;;;;;;5028300;28;5685;-76
2021/01/31 15:36:24;;;;;;;;;;;;;;;;;;5030188;28;5700;-75
2021/01/31 15:38:49;;;;;;;;;;;;;;;;;;5025113;28;5155;-76
2021/01/31 15:41:15;;;;;;;;;;;;;;;;;;5024977;28;5477;-75
2021/01/31 15:43:40;;;;;;;;;;;;;;;;;;5013197;28;3522;-76
2021/01/31 15:46:06;;;;;;;;;;;;;;;;;;5027267;28;5300;-75
2021/01/31 15:48:31;;;;;;;;;;;;;;;;;;5019290;28;5802;-75
2021/01/31 15:50:56;;;;;;;;;;;;;;;;;;5018531;28;5287;-75
2021/01/31 15:53:21;;;;;;;;;;;;;;;;;;5028320;28;5140;-75
2021/01/31 15:55:47;;;;;;;;;;;;;;;;;;5023428;28;3206;-76
2021/01/31 15:58:12;;;;;;;;;;;;;;;;;;5029384;28;5931;-75
2021/01/31 16:00:37;;;;;;;;;;;;;;;;;;5028364;28;5953;-76
2021/01/31 16:03:03;;;;;;;;;;;;;;;;;;5023914;28;3528;-75
2021/01/31 16:05:28;;;;;;;;;;;;;;;;;;5013849;28;5135;-75
2021/01/31 16:07:54;;;;;;;;;;;;;;;;;;5032527;28;5178;-75
2021/01/31 16:10:20;;;;;;;;;;;;;;;;;;5024157;28;3097;-75
2021/01/31 16:12:46;;;;;;;;;;;;;;;;;;5023962;28;5280;-76
2021/01/31 16:15:13;;;;;;;;;;;;;;;;;;5021358;28;5299;-75
2021/01/31 16:17:39;;;;;;;;;;;;;;;;;;5012690;28;5365;-76
2021/01/31 16:20:06;;;;;;;;;;;;;;;;;;5013108;28;5149;-75
2021/01/31 16:22:31;;;;;;;;;;;;;;;;;;5022654;28;3264;-75
2021/01/31 16:24:56;;;;;;;;;;;;;;;;;;5012545;28;5230;-76
2021/01/31 16:27:21;;;;;;;;;;;;;;;;;;5013084;28;5377;-75
2021/01/31 16:29:47;;;;;;;;;;;;;;;;;;5023140;28;5183;-76
2021/01/31 16:32:12;;;;;;;;;;;;;;;;;;5013519;28;4550;-75
2021/01/31 16:34:37;;;;;;;;;;;;;;;;;;4995186;28;5577;-76
2021/01/31 16:37:07;;;;;;;;;;;;;;;;;;5022562;28;5720;-75
2021/01/31 16:39:32;;;;;;;;;;;;;;;;;;5013233;28;5224;-76
2021/01/31 16:41:58;;;;;;;;;;;;;;;;;;5022565;28;2983;-76
2021/01/31 16:44:23;;;;;;;;;;;;;;;;;;5012973;28;5370;-76
2021/01/31 16:46:48;;;;;;;;;;;;;;;;;;5004771;28;5614;-75
2021/01/31 16:49:13;;;;;;;;;;;;;;;;;;5018696;28;5196;-75
2021/01/31 16:51:38;;;;;;;;;;;;;;;;;;5018008;28;5239;-76
2021/01/31 16:54:04;;;;;;;;;;;;;;;;;;5013687;28;2820;-76
2021/01/31 16:56:29;;;;;;;;;;;;;;;;;;5022740;28;5867;-75
2021/01/31 16:58:54;;;;;;;;;;;;;;;;;;5019264;28;5307;-75
2021/01/31 17:01:20;;;;;;;;;;;;;;;;;;5032692;28;2883;-76
2021/01/31 17:03:45;;;;;;;;;;;;;;;;;;5033814;28;5258;-75
2021/01/31 17:06:10;;;;;;;;;;;;;;;;;;5034888;28;5135;-75
2021/01/31 17:08:36;;;;;;;;;;;;;;;;;;5033605;28;4138;-75